sensor_id;sensor_type;location;lat;lon;timestamp;temperature;humidity
10171;DHT22;5127;50.922;6.988;2023-02-08T00:02:09;1.50;58.70
10171;DHT22;5127;50.922;6.988;2023-02-08T00:04:37;1.50;58.70
10171;DHT22;5127;50.922;6.988;2023-02-08T00:07:05;1.50;58.70
10171;DHT22;5127;50.922;6.988;2023-02-08T00:09:33;1.50;58.80
10171;DHT22;5127;50.922;6.988;2023-02-08T00:12:00;1.50;58.80
10171;DHT22;5127;50.922;6.988;2023-02-08T00:14:28;1.50;58.80
10171;DHT22;5127;50.922;6.988;2023-02-08T00:16:55;1.50;58.90
10171;DHT22;5127;50.922;6.988;2023-02-08T00:19:22;1.40;58.90
10171;DHT22;5127;50.922;6.988;2023-02-08T00:21:50;1.50;59.00
10171;DHT22;5127;50.922;6.988;2023-02-08T00:24:18;1.40;59.00
10171;DHT22;5127;50.922;6.988;2023-02-08T00:26:46;1.40;59.00
10171;DHT22;5127;50.922;6.988;2023-02-08T00:29:13;1.40;59.10
10171;DHT22;5127;50.922;6.988;2023-02-08T00:31:40;1.40;59.10
10171;DHT22;5127;50.922;6.988;2023-02-08T00:34:07;1.40;59.10
10171;DHT22;5127;50.922;6.988;2023-02-08T00:36:35;1.40;59.20
10171;DHT22;5127;50.922;6.988;2023-02-08T00:39:02;1.40;59.20
10171;DHT22;5127;50.922;6.988;2023-02-08T00:41:31;1.40;59.20
10171;DHT22;5127;50.922;6.988;2023-02-08T00:43:58;1.30;59.10
10171;DHT22;5127;50.922;6.988;2023-02-08T00:46:26;1.30;59.20
10171;DHT22;5127;50.922;6.988;2023-02-08T00:48:53;1.30;59.20
10171;DHT22;5127;50.922;6.988;2023-02-08T00:51:20;1.30;59.20
10171;DHT22;5127;50.922;6.988;2023-02-08T00:53:49;1.30;59.20
10171;DHT22;5127;50.922;6.988;2023-02-08T00:56:16;1.30;59.20
10171;DHT22;5127;50.922;6.988;2023-02-08T00:58:45;1.30;59.30
10171;DHT22;5127;50.922;6.988;2023-02-08T01:01:13;1.30;59.40
10171;DHT22;5127;50.922;6.988;2023-02-08T01:03:41;1.20;59.30
10171;DHT22;5127;50.922;6.988;2023-02-08T01:06:10;1.20;59.30
10171;DHT22;5127;50.922;6.988;2023-02-08T01:08:38;1.20;59.30
10171;DHT22;5127;50.922;6.988;2023-02-08T01:11:08;1.20;59.40
10171;DHT22;5127;50.922;6.988;2023-02-08T01:13:37;1.20;59.40
10171;DHT22;5127;50.922;6.988;2023-02-08T01:16:10;1.20;59.60
10171;DHT22;5127;50.922;6.988;2023-02-08T01:18:38;1.10;59.50
10171;DHT22;5127;50.922;6.988;2023-02-08T01:21:08;1.10;59.60
10171;DHT22;5127;50.922;6.988;2023-02-08T01:23:38;1.10;59.60
10171;DHT22;5127;50.922;6.988;2023-02-08T01:26:06;1.10;59.70
10171;DHT22;5127;50.922;6.988;2023-02-08T01:28:34;1.10;59.70
10171;DHT22;5127;50.922;6.988;2023-02-08T01:31:04;1.10;59.70
10171;DHT22;5127;50.922;6.988;2023-02-08T01:33:33;1.10;59.70
10171;DHT22;5127;50.922;6.988;2023-02-08T01:36:01;1.10;59.70
10171;DHT22;5127;50.922;6.988;2023-02-08T01:38:29;1.10;59.80
10171;DHT22;5127;50.922;6.988;2023-02-08T01:40:57;1.10;59.80
10171;DHT22;5127;50.922;6.988;2023-02-08T01:43:27;1.00;59.80
10171;DHT22;5127;50.922;6.988;2023-02-08T01:45:54;1.10;59.80
10171;DHT22;5127;50.922;6.988;2023-02-08T01:48:24;1.00;59.80
10171;DHT22;5127;50.922;6.988;2023-02-08T01:50:58;1.00;59.80
10171;DHT22;5127;50.922;6.988;2023-02-08T01:53:29;1.00;59.70
10171;DHT22;5127;50.922;6.988;2023-02-08T01:56:00;1.00;59.70
10171;DHT22;5127;50.922;6.988;2023-02-08T01:58:30;1.00;59.80
10171;DHT22;5127;50.922;6.988;2023-02-08T02:00:58;1.00;59.80
10171;DHT22;5127;50.922;6.988;2023-02-08T02:03:26;1.00;59.90
10171;DHT22;5127;50.922;6.988;2023-02-08T02:06:10;1.00;59.90
10171;DHT22;5127;50.922;6.988;2023-02-08T02:08:43;1.00;59.80
10171;DHT22;5127;50.922;6.988;2023-02-08T02:11:13;1.00;59.80
10171;DHT22;5127;50.922;6.988;2023-02-08T02:13:40;0.90;59.80
10171;DHT22;5127;50.922;6.988;2023-02-08T02:16:08;0.90;59.80
10171;DHT22;5127;50.922;6.988;2023-02-08T02:18:36;0.90;59.90
10171;DHT22;5127;50.922;6.988;2023-02-08T02:21:24;0.90;59.90
10171;DHT22;5127;50.922;6.988;2023-02-08T02:24:09;0.90;59.90
10171;DHT22;5127;50.922;6.988;2023-02-08T02:29:55;0.90;59.90
10171;DHT22;5127;50.922;6.988;2023-02-08T02:32:58;0.90;59.90
10171;DHT22;5127;50.922;6.988;2023-02-08T02:35:34;0.90;59.80
10171;DHT22;5127;50.922;6.988;2023-02-08T02:38:10;0.90;60.00
10171;DHT22;5127;50.922;6.988;2023-02-08T02:40:45;0.90;60.00
10171;DHT22;5127;50.922;6.988;2023-02-08T02:43:21;0.80;60.00
10171;DHT22;5127;50.922;6.988;2023-02-08T02:46:14;0.80;60.00
10171;DHT22;5127;50.922;6.988;2023-02-08T02:48:49;0.80;60.10
10171;DHT22;5127;50.922;6.988;2023-02-08T02:51:21;0.80;60.10
10171;DHT22;5127;50.922;6.988;2023-02-08T02:53:56;0.80;60.20
10171;DHT22;5127;50.922;6.988;2023-02-08T02:56:29;0.80;60.20
10171;DHT22;5127;50.922;6.988;2023-02-08T02:59:02;0.80;60.30
10171;DHT22;5127;50.922;6.988;2023-02-08T03:01:30;0.80;60.30
10171;DHT22;5127;50.922;6.988;2023-02-08T03:03:59;0.70;60.10
10171;DHT22;5127;50.922;6.988;2023-02-08T03:06:37;0.70;60.20
10171;DHT22;5127;50.922;6.988;2023-02-08T03:09:24;0.80;60.40
10171;DHT22;5127;50.922;6.988;2023-02-08T03:12:00;0.70;60.20
10171;DHT22;5127;50.922;6.988;2023-02-08T03:14:34;0.70;61.00
10171;DHT22;5127;50.922;6.988;2023-02-08T03:20:04;0.80;60.30
10171;DHT22;5127;50.922;6.988;2023-02-08T03:22:42;0.70;60.20
10171;DHT22;5127;50.922;6.988;2023-02-08T03:25:16;0.70;60.20
10171;DHT22;5127;50.922;6.988;2023-02-08T03:27:51;0.60;60.10
10171;DHT22;5127;50.922;6.988;2023-02-08T03:30:25;0.60;60.10
10171;DHT22;5127;50.922;6.988;2023-02-08T03:32:57;0.60;60.10
10171;DHT22;5127;50.922;6.988;2023-02-08T03:35:32;0.60;60.20
10171;DHT22;5127;50.922;6.988;2023-02-08T03:38:02;0.60;60.10
10171;DHT22;5127;50.922;6.988;2023-02-08T03:40:34;0.60;60.30
10171;DHT22;5127;50.922;6.988;2023-02-08T03:43:07;0.60;60.30
10171;DHT22;5127;50.922;6.988;2023-02-08T03:45:39;0.60;60.30
10171;DHT22;5127;50.922;6.988;2023-02-08T03:48:10;0.50;60.30
10171;DHT22;5127;50.922;6.988;2023-02-08T03:50:43;0.50;60.30
10171;DHT22;5127;50.922;6.988;2023-02-08T03:53:14;0.50;60.30
10171;DHT22;5127;50.922;6.988;2023-02-08T03:55:44;0.50;60.40
10171;DHT22;5127;50.922;6.988;2023-02-08T03:58:19;0.50;60.50
10171;DHT22;5127;50.922;6.988;2023-02-08T04:00:53;0.50;60.50
10171;DHT22;5127;50.922;6.988;2023-02-08T04:03:24;0.50;60.60
10171;DHT22;5127;50.922;6.988;2023-02-08T04:05:53;0.50;60.60
10171;DHT22;5127;50.922;6.988;2023-02-08T04:08:21;0.50;60.60
10171;DHT22;5127;50.922;6.988;2023-02-08T04:10:48;0.50;60.60
10171;DHT22;5127;50.922;6.988;2023-02-08T04:13:16;0.50;60.60
10171;DHT22;5127;50.922;6.988;2023-02-08T04:15:43;0.40;60.60
10171;DHT22;5127;50.922;6.988;2023-02-08T04:18:10;0.40;60.60
10171;DHT22;5127;50.922;6.988;2023-02-08T04:20:38;0.50;60.70
10171;DHT22;5127;50.922;6.988;2023-02-08T04:23:07;0.40;60.60
10171;DHT22;5127;50.922;6.988;2023-02-08T04:25:34;0.40;60.60
10171;DHT22;5127;50.922;6.988;2023-02-08T04:28:01;0.40;60.60
10171;DHT22;5127;50.922;6.988;2023-02-08T04:30:28;0.40;60.60
10171;DHT22;5127;50.922;6.988;2023-02-08T04:32:56;0.40;60.70
10171;DHT22;5127;50.922;6.988;2023-02-08T04:35:25;0.40;60.70
10171;DHT22;5127;50.922;6.988;2023-02-08T04:37:52;0.40;60.70
10171;DHT22;5127;50.922;6.988;2023-02-08T04:40:21;0.40;60.70
10171;DHT22;5127;50.922;6.988;2023-02-08T04:42:48;0.40;60.70
10171;DHT22;5127;50.922;6.988;2023-02-08T04:45:16;0.40;60.80
10171;DHT22;5127;50.922;6.988;2023-02-08T04:47:43;0.40;60.80
10171;DHT22;5127;50.922;6.988;2023-02-08T04:50:11;0.40;60.80
10171;DHT22;5127;50.922;6.988;2023-02-08T04:52:38;0.40;60.80
10171;DHT22;5127;50.922;6.988;2023-02-08T04:55:06;0.40;60.80
10171;DHT22;5127;50.922;6.988;2023-02-08T04:57:35;0.40;60.80
10171;DHT22;5127;50.922;6.988;2023-02-08T05:00:03;0.30;60.70
10171;DHT22;5127;50.922;6.988;2023-02-08T05:02:30;0.30;60.80
10171;DHT22;5127;50.922;6.988;2023-02-08T05:04:58;0.30;60.80
10171;DHT22;5127;50.922;6.988;2023-02-08T05:07:25;0.30;60.80
10171;DHT22;5127;50.922;6.988;2023-02-08T05:09:52;0.30;60.70
10171;DHT22;5127;50.922;6.988;2023-02-08T05:12:19;0.30;60.70
10171;DHT22;5127;50.922;6.988;2023-02-08T05:14:48;0.30;60.70
10171;DHT22;5127;50.922;6.988;2023-02-08T05:17:15;0.30;60.70
10171;DHT22;5127;50.922;6.988;2023-02-08T05:19:43;0.30;60.70
10171;DHT22;5127;50.922;6.988;2023-02-08T05:22:10;0.30;60.70
10171;DHT22;5127;50.922;6.988;2023-02-08T05:24:37;0.30;60.70
10171;DHT22;5127;50.922;6.988;2023-02-08T05:27:04;0.30;60.80
10171;DHT22;5127;50.922;6.988;2023-02-08T05:29:32;0.30;60.80
10171;DHT22;5127;50.922;6.988;2023-02-08T05:32:00;0.30;60.80
10171;DHT22;5127;50.922;6.988;2023-02-08T05:34:28;0.20;60.70
10171;DHT22;5127;50.922;6.988;2023-02-08T05:36:55;0.20;60.70
10171;DHT22;5127;50.922;6.988;2023-02-08T05:39:22;0.20;60.80
10171;DHT22;5127;50.922;6.988;2023-02-08T05:41:49;0.20;60.80
10171;DHT22;5127;50.922;6.988;2023-02-08T05:44:17;0.20;60.80
10171;DHT22;5127;50.922;6.988;2023-02-08T05:46:44;0.20;60.80
10171;DHT22;5127;50.922;6.988;2023-02-08T05:49:13;0.10;60.70
10171;DHT22;5127;50.922;6.988;2023-02-08T05:51:40;0.10;60.70
10171;DHT22;5127;50.922;6.988;2023-02-08T05:54:07;0.10;60.70
10171;DHT22;5127;50.922;6.988;2023-02-08T05:56:35;0.10;60.80
10171;DHT22;5127;50.922;6.988;2023-02-08T05:59:03;0.10;60.80
10171;DHT22;5127;50.922;6.988;2023-02-08T06:01:30;0.10;60.80
10171;DHT22;5127;50.922;6.988;2023-02-08T06:03:58;0.10;60.80
10171;DHT22;5127;50.922;6.988;2023-02-08T06:06:27;0.10;60.80
10171;DHT22;5127;50.922;6.988;2023-02-08T06:08:54;0.10;60.80
10171;DHT22;5127;50.922;6.988;2023-02-08T06:11:21;0.10;60.80
10171;DHT22;5127;50.922;6.988;2023-02-08T06:13:48;0.10;60.90
10171;DHT22;5127;50.922;6.988;2023-02-08T06:16:16;0.10;60.90
10171;DHT22;5127;50.922;6.988;2023-02-08T06:18:43;0.10;60.90
10171;DHT22;5127;50.922;6.988;2023-02-08T06:21:11;0.10;60.90
10171;DHT22;5127;50.922;6.988;2023-02-08T06:23:39;0.10;60.90
10171;DHT22;5127;50.922;6.988;2023-02-08T06:26:07;0.10;60.90
10171;DHT22;5127;50.922;6.988;2023-02-08T06:28:34;0.10;60.90
10171;DHT22;5127;50.922;6.988;2023-02-08T06:31:02;0.10;60.90
10171;DHT22;5127;50.922;6.988;2023-02-08T06:33:29;0.10;60.90
10171;DHT22;5127;50.922;6.988;2023-02-08T06:35:56;0.10;61.60
10171;DHT22;5127;50.922;6.988;2023-02-08T06:38:24;0.10;60.80
10171;DHT22;5127;50.922;6.988;2023-02-08T06:40:52;0.20;60.90
10171;DHT22;5127;50.922;6.988;2023-02-08T06:43:20;0.10;60.80
10171;DHT22;5127;50.922;6.988;2023-02-08T06:45:47;0.20;60.90
10171;DHT22;5127;50.922;6.988;2023-02-08T06:48:15;0.20;60.90
10171;DHT22;5127;50.922;6.988;2023-02-08T06:50:42;0.20;60.90
10171;DHT22;5127;50.922;6.988;2023-02-08T06:53:09;0.10;60.80
10171;DHT22;5127;50.922;6.988;2023-02-08T06:55:37;0.10;60.80
10171;DHT22;5127;50.922;6.988;2023-02-08T06:58:06;0.10;60.80
10171;DHT22;5127;50.922;6.988;2023-02-08T07:00:33;0.10;60.80
10171;DHT22;5127;50.922;6.988;2023-02-08T07:03:00;0.10;60.80
10171;DHT22;5127;50.922;6.988;2023-02-08T07:05:28;0.10;60.90
10171;DHT22;5127;50.922;6.988;2023-02-08T07:07:55;0.10;60.80
10171;DHT22;5127;50.922;6.988;2023-02-08T07:10:22;0.10;60.80
10171;DHT22;5127;50.922;6.988;2023-02-08T07:12:50;0.10;60.80
10171;DHT22;5127;50.922;6.988;2023-02-08T07:15:18;0.20;61.00
10171;DHT22;5127;50.922;6.988;2023-02-08T07:17:46;0.20;61.00
10171;DHT22;5127;50.922;6.988;2023-02-08T07:20:13;0.20;61.00
10171;DHT22;5127;50.922;6.988;2023-02-08T07:22:41;0.20;61.00
10171;DHT22;5127;50.922;6.988;2023-02-08T07:25:08;0.20;61.00
10171;DHT22;5127;50.922;6.988;2023-02-08T07:27:36;0.20;61.00
10171;DHT22;5127;50.922;6.988;2023-02-08T07:30:04;0.30;61.20
10171;DHT22;5127;50.922;6.988;2023-02-08T07:32:34;0.30;61.20
10171;DHT22;5127;50.922;6.988;2023-02-08T07:35:02;0.30;61.20
10171;DHT22;5127;50.922;6.988;2023-02-08T07:37:29;0.30;61.20
10171;DHT22;5127;50.922;6.988;2023-02-08T07:39:58;0.40;61.30
10171;DHT22;5127;50.922;6.988;2023-02-08T07:42:25;0.40;61.20
10171;DHT22;5127;50.922;6.988;2023-02-08T07:45:04;0.40;61.30
10171;DHT22;5127;50.922;6.988;2023-02-08T07:47:33;0.50;61.70
10171;DHT22;5127;50.922;6.988;2023-02-08T07:50:01;0.50;61.70
10171;DHT22;5127;50.922;6.988;2023-02-08T07:52:28;0.60;62.20
10171;DHT22;5127;50.922;6.988;2023-02-08T07:54:55;0.70;62.70
10171;DHT22;5127;50.922;6.988;2023-02-08T07:57:23;0.90;63.30
10171;DHT22;5127;50.922;6.988;2023-02-08T07:59:50;1.10;63.70
10171;DHT22;5127;50.922;6.988;2023-02-08T08:02:17;1.30;64.00
10171;DHT22;5127;50.922;6.988;2023-02-08T08:04:46;1.50;64.60
10171;DHT22;5127;50.922;6.988;2023-02-08T08:07:13;1.90;65.30
10171;DHT22;5127;50.922;6.988;2023-02-08T08:09:41;2.20;65.80
10171;DHT22;5127;50.922;6.988;2023-02-08T08:12:08;2.60;66.10
10171;DHT22;5127;50.922;6.988;2023-02-08T08:14:35;3.00;66.20
10171;DHT22;5127;50.922;6.988;2023-02-08T08:17:02;3.40;65.80
10171;DHT22;5127;50.922;6.988;2023-02-08T08:19:30;3.80;66.10
10171;DHT22;5127;50.922;6.988;2023-02-08T08:21:58;4.20;65.80
10171;DHT22;5127;50.922;6.988;2023-02-08T08:24:25;4.60;65.50
10171;DHT22;5127;50.922;6.988;2023-02-08T08:26:53;5.00;65.40
10171;DHT22;5127;50.922;6.988;2023-02-08T08:29:20;5.30;65.10
10171;DHT22;5127;50.922;6.988;2023-02-08T08:31:48;5.70;64.80
10171;DHT22;5127;50.922;6.988;2023-02-08T08:34:15;6.00;64.60
10171;DHT22;5127;50.922;6.988;2023-02-08T08:36:42;6.30;64.50
10171;DHT22;5127;50.922;6.988;2023-02-08T08:39:11;6.50;64.30
10171;DHT22;5127;50.922;6.988;2023-02-08T08:41:38;6.80;63.50
10171;DHT22;5127;50.922;6.988;2023-02-08T08:44:05;7.00;63.40
10171;DHT22;5127;50.922;6.988;2023-02-08T08:46:32;7.20;63.00
10171;DHT22;5127;50.922;6.988;2023-02-08T08:49:00;7.40;62.50
10171;DHT22;5127;50.922;6.988;2023-02-08T08:51:28;7.50;61.70
10171;DHT22;5127;50.922;6.988;2023-02-08T08:53:57;7.60;61.00
10171;DHT22;5127;50.922;6.988;2023-02-08T08:56:26;7.60;60.00
10171;DHT22;5127;50.922;6.988;2023-02-08T08:58:53;7.50;58.70
10171;DHT22;5127;50.922;6.988;2023-02-08T09:01:20;7.40;58.70
10171;DHT22;5127;50.922;6.988;2023-02-08T09:03:48;7.20;58.20
10171;DHT22;5127;50.922;6.988;2023-02-08T09:06:16;7.10;57.70
10171;DHT22;5127;50.922;6.988;2023-02-08T09:08:44;6.90;57.40
10171;DHT22;5127;50.922;6.988;2023-02-08T09:11:12;6.70;57.40
10171;DHT22;5127;50.922;6.988;2023-02-08T09:13:42;6.50;56.90
10171;DHT22;5127;50.922;6.988;2023-02-08T09:16:11;6.40;56.90
10171;DHT22;5127;50.922;6.988;2023-02-08T09:18:40;6.20;56.70
10171;DHT22;5127;50.922;6.988;2023-02-08T09:21:09;6.10;56.90
10171;DHT22;5127;50.922;6.988;2023-02-08T09:23:37;5.90;56.80
10171;DHT22;5127;50.922;6.988;2023-02-08T09:26:08;5.70;56.60
10171;DHT22;5127;50.922;6.988;2023-02-08T09:28:36;5.60;56.80
10171;DHT22;5127;50.922;6.988;2023-02-08T09:31:08;5.50;56.90
10171;DHT22;5127;50.922;6.988;2023-02-08T09:33:35;5.40;56.40
10171;DHT22;5127;50.922;6.988;2023-02-08T09:36:03;5.30;57.00
10171;DHT22;5127;50.922;6.988;2023-02-08T09:38:31;5.20;56.50
10171;DHT22;5127;50.922;6.988;2023-02-08T09:41:05;5.10;56.50
10171;DHT22;5127;50.922;6.988;2023-02-08T09:43:41;5.10;56.00
10171;DHT22;5127;50.922;6.988;2023-02-08T09:46:15;5.00;56.20
10171;DHT22;5127;50.922;6.988;2023-02-08T09:48:44;5.00;56.20
10171;DHT22;5127;50.922;6.988;2023-02-08T09:51:20;4.90;56.20
10171;DHT22;5127;50.922;6.988;2023-02-08T09:53:51;4.90;55.60
10171;DHT22;5127;50.922;6.988;2023-02-08T09:56:26;4.90;56.20
10171;DHT22;5127;50.922;6.988;2023-02-08T09:58:55;4.80;56.00
10171;DHT22;5127;50.922;6.988;2023-02-08T10:01:27;4.80;56.50
10171;DHT22;5127;50.922;6.988;2023-02-08T10:03:58;4.80;56.30
10171;DHT22;5127;50.922;6.988;2023-02-08T10:06:25;4.80;56.20
10171;DHT22;5127;50.922;6.988;2023-02-08T10:08:53;4.80;56.40
10171;DHT22;5127;50.922;6.988;2023-02-08T10:11:34;4.80;56.20
10171;DHT22;5127;50.922;6.988;2023-02-08T10:14:24;4.80;55.00
10171;DHT22;5127;50.922;6.988;2023-02-08T10:17:01;4.90;55.20
10171;DHT22;5127;50.922;6.988;2023-02-08T10:19:50;4.90;55.90
10171;DHT22;5127;50.922;6.988;2023-02-08T10:22:28;4.90;55.60
10171;DHT22;5127;50.922;6.988;2023-02-08T10:25:28;4.90;55.80
10171;DHT22;5127;50.922;6.988;2023-02-08T10:28:24;4.90;55.70
10171;DHT22;5127;50.922;6.988;2023-02-08T10:30:56;5.00;54.90
10171;DHT22;5127;50.922;6.988;2023-02-08T10:33:35;5.00;56.20
10171;DHT22;5127;50.922;6.988;2023-02-08T10:36:12;5.10;55.90
10171;DHT22;5127;50.922;6.988;2023-02-08T10:38:40;5.20;55.40
10171;DHT22;5127;50.922;6.988;2023-02-08T10:41:09;5.20;56.10
10171;DHT22;5127;50.922;6.988;2023-02-08T10:43:44;5.20;55.50
10171;DHT22;5127;50.922;6.988;2023-02-08T10:46:19;5.20;55.20
10171;DHT22;5127;50.922;6.988;2023-02-08T10:49:02;5.30;55.10
10171;DHT22;5127;50.922;6.988;2023-02-08T10:51:33;5.40;54.70
10171;DHT22;5127;50.922;6.988;2023-02-08T10:54:01;5.40;54.00
10171;DHT22;5127;50.922;6.988;2023-02-08T10:56:42;5.50;55.50
10171;DHT22;5127;50.922;6.988;2023-02-08T10:59:19;5.60;54.30
10171;DHT22;5127;50.922;6.988;2023-02-08T11:01:48;5.60;54.10
10171;DHT22;5127;50.922;6.988;2023-02-08T11:04:17;5.70;55.50
10171;DHT22;5127;50.922;6.988;2023-02-08T11:06:47;5.70;55.40
10171;DHT22;5127;50.922;6.988;2023-02-08T11:09:20;5.80;54.90
10171;DHT22;5127;50.922;6.988;2023-02-08T11:11:48;5.80;53.90
10171;DHT22;5127;50.922;6.988;2023-02-08T11:14:19;5.90;54.00
10171;DHT22;5127;50.922;6.988;2023-02-08T11:16:50;6.00;53.90
10171;DHT22;5127;50.922;6.988;2023-02-08T11:19:26;6.00;54.00
10171;DHT22;5127;50.922;6.988;2023-02-08T11:21:55;6.10;53.80
10171;DHT22;5127;50.922;6.988;2023-02-08T11:24:27;6.10;54.20
10171;DHT22;5127;50.922;6.988;2023-02-08T11:26:56;6.20;53.60
10171;DHT22;5127;50.922;6.988;2023-02-08T11:29:25;6.30;53.30
10171;DHT22;5127;50.922;6.988;2023-02-08T11:31:58;6.30;53.30
10171;DHT22;5127;50.922;6.988;2023-02-08T11:34:29;6.40;53.00
10171;DHT22;5127;50.922;6.988;2023-02-08T11:37:00;6.40;53.60
10171;DHT22;5127;50.922;6.988;2023-02-08T11:39:31;6.50;54.00
10171;DHT22;5127;50.922;6.988;2023-02-08T11:42:01;6.50;53.60
10171;DHT22;5127;50.922;6.988;2023-02-08T11:44:33;6.60;52.80
10171;DHT22;5127;50.922;6.988;2023-02-08T11:47:03;6.60;52.70
10171;DHT22;5127;50.922;6.988;2023-02-08T11:49:36;6.70;52.70
10171;DHT22;5127;50.922;6.988;2023-02-08T11:52:05;6.80;52.80
10171;DHT22;5127;50.922;6.988;2023-02-08T11:54:38;6.80;53.50
10171;DHT22;5127;50.922;6.988;2023-02-08T11:57:16;6.90;51.80
10171;DHT22;5127;50.922;6.988;2023-02-08T11:59:44;6.90;50.90
10171;DHT22;5127;50.922;6.988;2023-02-08T12:02:33;7.00;51.90
10171;DHT22;5127;50.922;6.988;2023-02-08T12:05:03;7.10;49.70
10171;DHT22;5127;50.922;6.988;2023-02-08T12:07:40;7.10;50.40
10171;DHT22;5127;50.922;6.988;2023-02-08T12:10:20;7.20;50.40
10171;DHT22;5127;50.922;6.988;2023-02-08T12:13:06;7.20;49.10
10171;DHT22;5127;50.922;6.988;2023-02-08T12:15:42;7.30;47.80
10171;DHT22;5127;50.922;6.988;2023-02-08T12:18:33;7.30;48.50
10171;DHT22;5127;50.922;6.988;2023-02-08T12:21:10;7.40;48.50
10171;DHT22;5127;50.922;6.988;2023-02-08T12:23:47;7.40;49.80
10171;DHT22;5127;50.922;6.988;2023-02-08T12:26:19;7.50;49.80
10171;DHT22;5127;50.922;6.988;2023-02-08T12:29:02;7.50;51.00
10171;DHT22;5127;50.922;6.988;2023-02-08T12:31:45;7.50;50.30
10171;DHT22;5127;50.922;6.988;2023-02-08T12:34:18;7.60;50.00
10171;DHT22;5127;50.922;6.988;2023-02-08T12:37:08;7.60;51.30
10171;DHT22;5127;50.922;6.988;2023-02-08T12:40:01;7.70;49.80
10171;DHT22;5127;50.922;6.988;2023-02-08T12:43:00;7.70;50.00
10171;DHT22;5127;50.922;6.988;2023-02-08T12:46:03;7.80;50.60
10171;DHT22;5127;50.922;6.988;2023-02-08T12:51:41;7.90;49.10
10171;DHT22;5127;50.922;6.988;2023-02-08T12:54:15;7.90;49.80
10171;DHT22;5127;50.922;6.988;2023-02-08T12:56:48;7.90;49.20
10171;DHT22;5127;50.922;6.988;2023-02-08T12:59:21;8.00;49.80
10171;DHT22;5127;50.922;6.988;2023-02-08T13:01:52;8.10;49.80
10171;DHT22;5127;50.922;6.988;2023-02-08T13:04:28;8.10;50.70
10171;DHT22;5127;50.922;6.988;2023-02-08T13:07:02;8.10;50.10
10171;DHT22;5127;50.922;6.988;2023-02-08T13:09:40;8.10;49.50
10171;DHT22;5127;50.922;6.988;2023-02-08T13:12:13;8.20;48.40
10171;DHT22;5127;50.922;6.988;2023-02-08T13:14:44;8.20;48.30
10171;DHT22;5127;50.922;6.988;2023-02-08T13:17:16;8.20;48.20
10171;DHT22;5127;50.922;6.988;2023-02-08T13:19:51;8.30;48.00
10171;DHT22;5127;50.922;6.988;2023-02-08T13:22:21;8.30;47.50
10171;DHT22;5127;50.922;6.988;2023-02-08T13:24:51;8.30;47.90
10171;DHT22;5127;50.922;6.988;2023-02-08T13:27:20;8.40;47.20
10171;DHT22;5127;50.922;6.988;2023-02-08T13:29:49;8.40;48.70
10171;DHT22;5127;50.922;6.988;2023-02-08T13:32:22;8.40;48.30
10171;DHT22;5127;50.922;6.988;2023-02-08T13:34:57;8.40;47.50
10171;DHT22;5127;50.922;6.988;2023-02-08T13:37:28;8.50;47.40
10171;DHT22;5127;50.922;6.988;2023-02-08T13:40:02;8.50;47.60
10171;DHT22;5127;50.922;6.988;2023-02-08T13:42:34;8.50;47.60
10171;DHT22;5127;50.922;6.988;2023-02-08T13:45:04;8.50;47.40
10171;DHT22;5127;50.922;6.988;2023-02-08T13:47:39;8.60;46.80
10171;DHT22;5127;50.922;6.988;2023-02-08T13:50:36;8.60;46.80
10171;DHT22;5127;50.922;6.988;2023-02-08T13:53:04;8.60;46.10
10171;DHT22;5127;50.922;6.988;2023-02-08T13:58:58;8.70;46.60
10171;DHT22;5127;50.922;6.988;2023-02-08T14:01:27;8.70;46.50
10171;DHT22;5127;50.922;6.988;2023-02-08T14:06:57;8.70;47.20
10171;DHT22;5127;50.922;6.988;2023-02-08T14:09:36;8.80;48.80
10171;DHT22;5127;50.922;6.988;2023-02-08T14:12:12;8.80;47.90
10171;DHT22;5127;50.922;6.988;2023-02-08T14:14:42;8.80;47.80
10171;DHT22;5127;50.922;6.988;2023-02-08T14:17:21;8.80;48.80
10171;DHT22;5127;50.922;6.988;2023-02-08T14:19:57;8.90;46.90
10171;DHT22;5127;50.922;6.988;2023-02-08T14:22:27;8.90;47.40
10171;DHT22;5127;50.922;6.988;2023-02-08T14:25:03;8.90;48.40
10171;DHT22;5127;50.922;6.988;2023-02-08T14:27:37;8.90;47.60
10171;DHT22;5127;50.922;6.988;2023-02-08T14:30:21;8.90;47.00
10171;DHT22;5127;50.922;6.988;2023-02-08T14:32:51;8.90;47.20
10171;DHT22;5127;50.922;6.988;2023-02-08T14:35:22;8.90;48.00
10171;DHT22;5127;50.922;6.988;2023-02-08T14:38:31;9.00;48.70
10171;DHT22;5127;50.922;6.988;2023-02-08T14:41:03;9.00;47.60
10171;DHT22;5127;50.922;6.988;2023-02-08T14:43:33;9.00;48.50
10171;DHT22;5127;50.922;6.988;2023-02-08T14:49:10;9.00;47.10
10171;DHT22;5127;50.922;6.988;2023-02-08T14:51:42;9.10;48.50
10171;DHT22;5127;50.922;6.988;2023-02-08T14:54:18;9.10;48.60
10171;DHT22;5127;50.922;6.988;2023-02-08T14:56:56;9.10;48.10
10171;DHT22;5127;50.922;6.988;2023-02-08T14:59:29;9.10;47.60
10171;DHT22;5127;50.922;6.988;2023-02-08T15:01:59;9.10;47.30
10171;DHT22;5127;50.922;6.988;2023-02-08T15:04:28;9.10;48.10
10171;DHT22;5127;50.922;6.988;2023-02-08T15:07:20;9.20;48.80
10171;DHT22;5127;50.922;6.988;2023-02-08T15:09:50;9.10;46.40
10171;DHT22;5127;50.922;6.988;2023-02-08T15:12:24;9.10;48.40
10171;DHT22;5127;50.922;6.988;2023-02-08T15:14:54;9.10;47.30
10171;DHT22;5127;50.922;6.988;2023-02-08T15:17:30;9.10;48.30
10171;DHT22;5127;50.922;6.988;2023-02-08T15:19:59;9.10;47.60
10171;DHT22;5127;50.922;6.988;2023-02-08T15:22:34;9.10;48.10
10171;DHT22;5127;50.922;6.988;2023-02-08T15:25:20;9.10;47.20
10171;DHT22;5127;50.922;6.988;2023-02-08T15:27:51;9.10;46.70
10171;DHT22;5127;50.922;6.988;2023-02-08T15:30:35;9.10;46.90
10171;DHT22;5127;50.922;6.988;2023-02-08T15:33:09;9.00;46.40
10171;DHT22;5127;50.922;6.988;2023-02-08T15:35:39;9.00;47.00
10171;DHT22;5127;50.922;6.988;2023-02-08T15:38:14;9.00;47.80
10171;DHT22;5127;50.922;6.988;2023-02-08T15:40:58;9.00;47.10
10171;DHT22;5127;50.922;6.988;2023-02-08T15:43:28;9.00;46.20
10171;DHT22;5127;50.922;6.988;2023-02-08T15:45:56;8.90;47.50
10171;DHT22;5127;50.922;6.988;2023-02-08T15:48:24;8.90;48.30
10171;DHT22;5127;50.922;6.988;2023-02-08T15:50:52;8.90;47.60
10171;DHT22;5127;50.922;6.988;2023-02-08T15:53:22;8.90;47.50
10171;DHT22;5127;50.922;6.988;2023-02-08T15:55:52;8.80;47.10
10171;DHT22;5127;50.922;6.988;2023-02-08T15:58:28;8.80;47.10
10171;DHT22;5127;50.922;6.988;2023-02-08T16:00:57;8.80;46.90
10171;DHT22;5127;50.922;6.988;2023-02-08T16:03:26;8.70;47.50
10171;DHT22;5127;50.922;6.988;2023-02-08T16:05:56;8.70;47.30
10171;DHT22;5127;50.922;6.988;2023-02-08T16:08:27;8.70;47.50
10171;DHT22;5127;50.922;6.988;2023-02-08T16:10:57;8.60;47.30
10171;DHT22;5127;50.922;6.988;2023-02-08T16:13:29;8.60;46.80
10171;DHT22;5127;50.922;6.988;2023-02-08T16:16:14;8.50;46.40
10171;DHT22;5127;50.922;6.988;2023-02-08T16:18:45;8.50;45.50
10171;DHT22;5127;50.922;6.988;2023-02-08T16:21:33;8.40;46.60
10171;DHT22;5127;50.922;6.988;2023-02-08T16:24:05;8.30;45.30
10171;DHT22;5127;50.922;6.988;2023-02-08T16:26:47;8.30;46.30
10171;DHT22;5127;50.922;6.988;2023-02-08T16:29:19;8.20;46.30
10171;DHT22;5127;50.922;6.988;2023-02-08T16:31:54;8.20;46.10
10171;DHT22;5127;50.922;6.988;2023-02-08T16:34:22;8.10;46.80
10171;DHT22;5127;50.922;6.988;2023-02-08T16:36:51;8.10;46.50
10171;DHT22;5127;50.922;6.988;2023-02-08T16:39:24;8.10;46.90
10171;DHT22;5127;50.922;6.988;2023-02-08T16:42:01;8.00;46.80
10171;DHT22;5127;50.922;6.988;2023-02-08T16:44:33;7.90;47.10
10171;DHT22;5127;50.922;6.988;2023-02-08T16:47:23;7.80;46.90
10171;DHT22;5127;50.922;6.988;2023-02-08T16:49:51;7.70;47.10